sensor_id;sensor_type;location;lat;lon;timestamp;pressure;altitude;pressure_sealevel;temperature;humidity
81033;BME280;70514;52.478;6.102;2023-06-14T00:00:13;101656.00;;;26.93;26.92
81033;BME280;70514;52.478;6.102;2023-06-14T00:02:39;101667.06;;;27.01;27.07
81033;BME280;70514;52.478;6.102;2023-06-14T00:05:07;101677.63;;;27.01;27.04
81033;BME280;70514;52.478;6.102;2023-06-14T00:07:37;101659.78;;;26.87;26.98
81033;BME280;70514;52.478;6.102;2023-06-14T00:10:11;101678.75;;;26.95;27.17
81033;BME280;70514;52.478;6.102;2023-06-14T00:12:36;101689.28;;;26.97;26.94
81033;BME280;70514;52.478;6.102;2023-06-14T00:15:02;101641.03;;;26.73;26.98
81033;BME280;70514;52.478;6.102;2023-06-14T00:17:28;101683.19;;;26.95;27.02
81033;BME280;70514;52.478;6.102;2023-06-14T00:19:57;101678.75;;;26.95;27.16
81033;BME280;70514;52.478;6.102;2023-06-14T00:22:22;101680.00;;;26.88;26.96
81033;BME280;70514;52.478;6.102;2023-06-14T00:24:50;101680.09;;;26.85;27.07
81033;BME280;70514;52.478;6.102;2023-06-14T00:27:15;101671.78;;;26.74;27.07
81033;BME280;70514;52.478;6.102;2023-06-14T00:29:41;101643.13;;;26.46;26.97
81033;BME280;70514;52.478;6.102;2023-06-14T00:32:06;101680.19;;;26.63;27.29
81033;BME280;70514;52.478;6.102;2023-06-14T00:34:32;101684.06;;;26.56;26.90
81033;BME280;70514;52.478;6.102;2023-06-14T00:36:58;101680.78;;;26.51;27.47
81033;BME280;70514;52.478;6.102;2023-06-14T00:39:24;101671.53;;;26.41;27.04
81033;BME280;70514;52.478;6.102;2023-06-14T00:41:49;101650.94;;;26.29;27.56
81033;BME280;70514;52.478;6.102;2023-06-14T00:44:16;101681.84;;;26.47;27.29
81033;BME280;70514;52.478;6.102;2023-06-14T00:46:41;101654.44;;;26.30;27.18
81033;BME280;70514;52.478;6.102;2023-06-14T00:49:07;101655.25;;;26.32;27.07
81033;BME280;70514;52.478;6.102;2023-06-14T00:51:32;101657.75;;;26.35;27.46
81033;BME280;70514;52.478;6.102;2023-06-14T00:53:58;101681.84;;;26.47;27.27
81033;BME280;70514;52.478;6.102;2023-06-14T00:56:23;101679.91;;;26.51;27.09
81033;BME280;70514;52.478;6.102;2023-06-14T00:58:50;101645.66;;;26.29;27.31
81033;BME280;70514;52.478;6.102;2023-06-14T01:01:16;101688.16;;;26.43;27.19
81033;BME280;70514;52.478;6.102;2023-06-14T01:03:41;101686.53;;;26.41;27.25
81033;BME280;70514;52.478;6.102;2023-06-14T01:06:26;101674.44;;;26.35;27.28
81033;BME280;70514;52.478;6.102;2023-06-14T01:11:28;101648.63;;;26.21;27.39
81033;BME280;70514;52.478;6.102;2023-06-14T01:13:56;101682.97;;;26.42;27.59
81033;BME280;70514;52.478;6.102;2023-06-14T01:16:25;101663.88;;;26.35;27.28
81033;BME280;70514;52.478;6.102;2023-06-14T01:18:52;101690.22;;;26.37;27.11
81033;BME280;70514;52.478;6.102;2023-06-14T01:21:25;101685.28;;;26.29;27.35
81033;BME280;70514;52.478;6.102;2023-06-14T01:23:53;101662.44;;;26.06;27.36
81033;BME280;70514;52.478;6.102;2023-06-14T01:26:20;101684.19;;;26.13;27.80
81033;BME280;70514;52.478;6.102;2023-06-14T01:28:46;101686.97;;;26.10;27.50
81033;BME280;70514;52.478;6.102;2023-06-14T01:31:17;101652.16;;;25.80;27.25
81033;BME280;70514;52.478;6.102;2023-06-14T01:33:43;101651.66;;;25.70;27.97
81033;BME280;70514;52.478;6.102;2023-06-14T01:36:09;101683.69;;;25.83;27.95
81033;BME280;70514;52.478;6.102;2023-06-14T01:38:36;101681.34;;;25.75;27.83
81033;BME280;70514;52.478;6.102;2023-06-14T01:41:03;101675.34;;;25.72;28.00
81033;BME280;70514;52.478;6.102;2023-06-14T01:43:30;101689.47;;;25.71;27.79
81033;BME280;70514;52.478;6.102;2023-06-14T01:45:56;101687.69;;;25.71;28.02
81033;BME280;70514;52.478;6.102;2023-06-14T01:48:22;101693.63;;;25.76;28.17
81033;BME280;70514;52.478;6.102;2023-06-14T01:50:50;101690.81;;;25.81;27.64
81033;BME280;70514;52.478;6.102;2023-06-14T01:53:16;101662.59;;;25.61;27.48
81033;BME280;70514;52.478;6.102;2023-06-14T01:55:41;101665.13;;;25.64;27.61
81033;BME280;70514;52.478;6.102;2023-06-14T01:58:09;101660.78;;;25.63;27.58
81033;BME280;70514;52.478;6.102;2023-06-14T02:00:34;101692.47;;;25.84;27.77
81033;BME280;70514;52.478;6.102;2023-06-14T02:03:00;101684.50;;;25.85;27.49
81033;BME280;70514;52.478;6.102;2023-06-14T02:05:26;101703.19;;;26.01;27.70
81033;BME280;70514;52.478;6.102;2023-06-14T02:07:51;101696.91;;;26.03;27.44
81033;BME280;70514;52.478;6.102;2023-06-14T02:10:18;101667.81;;;25.85;27.81
81033;BME280;70514;52.478;6.102;2023-06-14T02:12:44;101696.31;;;25.97;27.86
81033;BME280;70514;52.478;6.102;2023-06-14T02:15:10;101684.72;;;26.01;27.91
81033;BME280;70514;52.478;6.102;2023-06-14T02:17:42;101691.78;;;26.00;27.94
81033;BME280;70514;52.478;6.102;2023-06-14T02:20:08;101678.41;;;25.83;27.66
81033;BME280;70514;52.478;6.102;2023-06-14T02:22:34;101690.75;;;25.83;27.58
81033;BME280;70514;52.478;6.102;2023-06-14T02:25:00;101685.53;;;25.81;28.06
81033;BME280;70514;52.478;6.102;2023-06-14T02:27:25;101696.03;;;25.83;28.12
81033;BME280;70514;52.478;6.102;2023-06-14T02:29:50;101696.84;;;25.85;27.92
81033;BME280;70514;52.478;6.102;2023-06-14T02:32:16;101667.63;;;25.67;27.81
81033;BME280;70514;52.478;6.102;2023-06-14T02:34:41;101703.81;;;25.86;27.79
81033;BME280;70514;52.478;6.102;2023-06-14T02:37:07;101692.41;;;25.85;27.56
81033;BME280;70514;52.478;6.102;2023-06-14T02:39:33;101696.94;;;25.81;28.10
81033;BME280;70514;52.478;6.102;2023-06-14T02:41:58;101695.13;;;25.84;27.73
81033;BME280;70514;52.478;6.102;2023-06-14T02:44:25;101693.25;;;25.86;27.72
81033;BME280;70514;52.478;6.102;2023-06-14T02:46:54;101691.66;;;25.81;28.19
81033;BME280;70514;52.478;6.102;2023-06-14T02:49:21;101692.78;;;25.76;28.29
81033;BME280;70514;52.478;6.102;2023-06-14T02:51:46;101710.53;;;25.72;28.05
81033;BME280;70514;52.478;6.102;2023-06-14T02:54:11;101701.06;;;25.67;28.07
81033;BME280;70514;52.478;6.102;2023-06-14T02:56:37;101703.94;;;25.61;27.92
81033;BME280;70514;52.478;6.102;2023-06-14T02:59:02;101717.94;;;25.63;28.37
81033;BME280;70514;52.478;6.102;2023-06-14T03:01:28;101701.31;;;25.61;28.15
81033;BME280;70514;52.478;6.102;2023-06-14T03:04:00;101703.84;;;25.64;28.14
81033;BME280;70514;52.478;6.102;2023-06-14T03:06:27;101709.13;;;25.64;28.29
81033;BME280;70514;52.478;6.102;2023-06-14T03:08:55;101711.13;;;25.57;28.46
81033;BME280;70514;52.478;6.102;2023-06-14T03:11:24;101673.50;;;25.30;28.48
81033;BME280;70514;52.478;6.102;2023-06-14T03:13:50;101715.59;;;25.55;28.66
81033;BME280;70514;52.478;6.102;2023-06-14T03:16:16;101720.16;;;25.50;28.27
81033;BME280;70514;52.478;6.102;2023-06-14T03:18:44;101717.22;;;25.36;28.36
81033;BME280;70514;52.478;6.102;2023-06-14T03:21:10;101724.31;;;25.34;28.73
81033;BME280;70514;52.478;6.102;2023-06-14T03:23:36;101710.88;;;25.18;28.37
81033;BME280;70514;52.478;6.102;2023-06-14T03:26:01;101724.88;;;25.20;28.56
81033;BME280;70514;52.478;6.102;2023-06-14T03:28:26;101729.41;;;25.17;28.45
81033;BME280;70514;52.478;6.102;2023-06-14T03:30:52;101737.72;;;25.06;28.54
81033;BME280;70514;52.478;6.102;2023-06-14T03:33:17;101735.25;;;25.02;28.99
81033;BME280;70514;52.478;6.102;2023-06-14T03:35:43;101735.44;;;24.97;28.71
81033;BME280;70514;52.478;6.102;2023-06-14T03:38:08;101719.44;;;24.77;28.88
81033;BME280;70514;52.478;6.102;2023-06-14T03:40:34;101739.16;;;24.91;28.88
81033;BME280;70514;52.478;6.102;2023-06-14T03:42:59;101748.88;;;24.89;29.06
81033;BME280;70514;52.478;6.102;2023-06-14T03:45:25;101741.97;;;24.85;28.76
81033;BME280;70514;52.478;6.102;2023-06-14T03:47:50;101739.59;;;24.78;29.22
81033;BME280;70514;52.478;6.102;2023-06-14T03:50:17;101738.66;;;24.80;29.41
81033;BME280;70514;52.478;6.102;2023-06-14T03:52:43;101715.38;;;24.68;29.28
81033;BME280;70514;52.478;6.102;2023-06-14T03:55:09;101717.91;;;24.71;29.27
81033;BME280;70514;52.478;6.102;2023-06-14T03:57:35;101723.06;;;24.74;28.80
81033;BME280;70514;52.478;6.102;2023-06-14T04:00:00;101755.69;;;24.95;28.85
81033;BME280;70514;52.478;6.102;2023-06-14T04:02:26;101767.97;;;24.96;28.86
81033;BME280;70514;52.478;6.102;2023-06-14T04:04:54;101763.66;;;24.93;29.03
81033;BME280;70514;52.478;6.102;2023-06-14T04:07:19;101762.09;;;24.88;29.07
81033;BME280;70514;52.478;6.102;2023-06-14T04:09:46;101763.88;;;24.87;29.05
81033;BME280;70514;52.478;6.102;2023-06-14T04:12:11;101763.06;;;24.85;29.41
81033;BME280;70514;52.478;6.102;2023-06-14T04:14:37;101766.63;;;24.83;29.20
81033;BME280;70514;52.478;6.102;2023-06-14T04:17:03;101762.78;;;24.68;29.24
81033;BME280;70514;52.478;6.102;2023-06-14T04:19:28;101733.00;;;24.41;29.86
81033;BME280;70514;52.478;6.102;2023-06-14T04:21:54;101738.56;;;24.34;29.62
81033;BME280;70514;52.478;6.102;2023-06-14T04:24:19;101775.78;;;24.48;29.54
81033;BME280;70514;52.478;6.102;2023-06-14T04:26:45;101775.19;;;24.40;29.87
81033;BME280;70514;52.478;6.102;2023-06-14T04:29:15;101775.41;;;24.34;29.90
81033;BME280;70514;52.478;6.102;2023-06-14T04:31:42;101777.38;;;24.27;29.90
81033;BME280;70514;52.478;6.102;2023-06-14T04:34:07;101785.31;;;24.26;30.33
81033;BME280;70514;52.478;6.102;2023-06-14T04:36:34;101783.16;;;24.10;30.10
81033;BME280;70514;52.478;6.102;2023-06-14T04:39:01;101785.97;;;24.04;30.66
81033;BME280;70514;52.478;6.102;2023-06-14T04:41:28;101772.41;;;23.90;30.66
81033;BME280;70514;52.478;6.102;2023-06-14T04:44:00;101787.06;;;23.99;30.72
81033;BME280;70514;52.478;6.102;2023-06-14T04:46:30;101794.69;;;24.06;30.55
81033;BME280;70514;52.478;6.102;2023-06-14T04:48:57;101799.78;;;24.12;30.36
81033;BME280;70514;52.478;6.102;2023-06-14T04:51:22;101800.78;;;24.08;30.45
81033;BME280;70514;52.478;6.102;2023-06-14T04:53:57;101803.75;;;23.98;30.67
81033;BME280;70514;52.478;6.102;2023-06-14T04:56:26;101794.66;;;23.80;30.83
81033;BME280;70514;52.478;6.102;2023-06-14T04:58:51;101814.16;;;23.73;31.25
81033;BME280;70514;52.478;6.102;2023-06-14T05:01:18;101784.50;;;23.39;31.42
81033;BME280;70514;52.478;6.102;2023-06-14T05:03:44;101776.13;;;23.26;31.44
81033;BME280;70514;52.478;6.102;2023-06-14T05:06:10;101807.41;;;23.35;31.82
81033;BME280;70514;52.478;6.102;2023-06-14T05:08:37;101815.44;;;23.30;31.67
81033;BME280;70514;52.478;6.102;2023-06-14T05:11:02;101820.81;;;23.26;31.69
81033;BME280;70514;52.478;6.102;2023-06-14T05:13:28;101805.38;;;23.14;31.86
81033;BME280;70514;52.478;6.102;2023-06-14T05:15:53;101826.84;;;22.99;32.48
81033;BME280;70514;52.478;6.102;2023-06-14T05:18:18;101791.06;;;22.59;32.59
81033;BME280;70514;52.478;6.102;2023-06-14T05:20:45;101827.44;;;22.76;32.71
81033;BME280;70514;52.478;6.102;2023-06-14T05:23:11;101822.97;;;22.79;32.62
81033;BME280;70514;52.478;6.102;2023-06-14T05:25:42;101800.00;;;22.54;32.60
81033;BME280;70514;52.478;6.102;2023-06-14T05:28:08;101826.69;;;22.71;33.12
81033;BME280;70514;52.478;6.102;2023-06-14T05:30:33;101823.78;;;22.81;32.58
81033;BME280;70514;52.478;6.102;2023-06-14T05:32:58;101831.22;;;22.98;32.18
81033;BME280;70514;52.478;6.102;2023-06-14T05:35:24;101830.38;;;22.96;32.49
81033;BME280;70514;52.478;6.102;2023-06-14T05:37:52;101834.72;;;22.99;32.34
81033;BME280;70514;52.478;6.102;2023-06-14T05:40:19;101829.22;;;23.06;32.49
81033;BME280;70514;52.478;6.102;2023-06-14T05:42:44;101792.81;;;22.94;32.37
81033;BME280;70514;52.478;6.102;2023-06-14T05:45:09;101827.69;;;23.30;31.91
81033;BME280;70514;52.478;6.102;2023-06-14T05:47:35;101828.06;;;23.49;32.02
81033;BME280;70514;52.478;6.102;2023-06-14T05:50:00;101828.44;;;23.66;31.60
81033;BME280;70514;52.478;6.102;2023-06-14T05:52:26;101841.78;;;23.88;31.27
81033;BME280;70514;52.478;6.102;2023-06-14T05:54:51;101838.72;;;24.01;31.07
81033;BME280;70514;52.478;6.102;2023-06-14T05:57:16;101836.66;;;24.11;31.28
81033;BME280;70514;52.478;6.102;2023-06-14T05:59:42;101844.41;;;24.17;31.30
81033;BME280;70514;52.478;6.102;2023-06-14T06:02:07;101846.56;;;24.31;31.00
81033;BME280;70514;52.478;6.102;2023-06-14T06:04:32;101844.38;;;24.45;30.61
81033;BME280;70514;52.478;6.102;2023-06-14T06:06:58;101809.47;;;24.38;30.10
81033;BME280;70514;52.478;6.102;2023-06-14T06:09:23;101853.03;;;24.73;30.47
81033;BME280;70514;52.478;6.102;2023-06-14T06:11:48;101845.84;;;24.78;30.12
81033;BME280;70514;52.478;6.102;2023-06-14T06:14:14;101850.81;;;24.87;29.74
81033;BME280;70514;52.478;6.102;2023-06-14T06:16:39;101820.31;;;24.80;29.64
81033;BME280;70514;52.478;6.102;2023-06-14T06:19:05;101854.59;;;25.05;29.95
81033;BME280;70514;52.478;6.102;2023-06-14T06:21:30;101857.75;;;25.15;29.55
81033;BME280;70514;52.478;6.102;2023-06-14T06:23:56;101854.44;;;25.10;29.79
81033;BME280;70514;52.478;6.102;2023-06-14T06:26:22;101850.84;;;25.12;29.74
81033;BME280;70514;52.478;6.102;2023-06-14T06:28:48;101851.38;;;25.22;29.54
81033;BME280;70514;52.478;6.102;2023-06-14T06:31:13;101862.38;;;25.33;29.26
81033;BME280;70514;52.478;6.102;2023-06-14T06:33:38;101859.66;;;25.34;29.71
81033;BME280;70514;52.478;6.102;2023-06-14T06:36:05;101862.56;;;25.28;29.80
81033;BME280;70514;52.478;6.102;2023-06-14T06:38:30;101838.94;;;25.01;29.22
81033;BME280;70514;52.478;6.102;2023-06-14T06:40:56;101846.66;;;25.07;29.93
81033;BME280;70514;52.478;6.102;2023-06-14T06:43:22;101882.34;;;25.15;29.58
81033;BME280;70514;52.478;6.102;2023-06-14T06:45:47;101880.38;;;25.22;29.34
81033;BME280;70514;52.478;6.102;2023-06-14T06:48:13;101877.34;;;25.32;29.09
81033;BME280;70514;52.478;6.102;2023-06-14T06:50:38;101874.19;;;25.46;28.84
81033;BME280;70514;52.478;6.102;2023-06-14T06:53:04;101892.06;;;25.63;28.71
81033;BME280;70514;52.478;6.102;2023-06-14T06:55:30;101878.47;;;25.73;28.45
81033;BME280;70514;52.478;6.102;2023-06-14T06:57:56;101858.31;;;25.71;28.31
81033;BME280;70514;52.478;6.102;2023-06-14T07:00:21;101846.56;;;25.79;28.26
81033;BME280;70514;52.478;6.102;2023-06-14T07:02:47;101886.59;;;26.12;28.28
81033;BME280;70514;52.478;6.102;2023-06-14T07:05:12;101858.84;;;26.02;28.10
81033;BME280;70514;52.478;6.102;2023-06-14T07:07:38;101885.97;;;26.29;28.32
81033;BME280;70514;52.478;6.102;2023-06-14T07:10:04;101896.25;;;26.37;28.15
81033;BME280;70514;52.478;6.102;2023-06-14T07:12:33;101892.84;;;26.33;28.20
81033;BME280;70514;52.478;6.102;2023-06-14T07:15:01;101903.41;;;26.33;28.20
81033;BME280;70514;52.478;6.102;2023-06-14T07:17:26;101863.59;;;26.16;27.72
81033;BME280;70514;52.478;6.102;2023-06-14T07:19:52;101906.84;;;26.35;27.83
81033;BME280;70514;52.478;6.102;2023-06-14T07:22:18;101899.75;;;26.37;27.73
81033;BME280;70514;52.478;6.102;2023-06-14T07:24:44;101871.19;;;26.25;28.02
81033;BME280;70514;52.478;6.102;2023-06-14T07:27:09;101901.88;;;26.49;27.49
81033;BME280;70514;52.478;6.102;2023-06-14T07:29:35;101903.44;;;26.53;27.48
81033;BME280;70514;52.478;6.102;2023-06-14T07:32:01;101910.47;;;26.54;27.56
81033;BME280;70514;52.478;6.102;2023-06-14T07:34:26;101916.75;;;26.52;27.30
81033;BME280;70514;52.478;6.102;2023-06-14T07:36:52;101913.44;;;26.47;27.55
81033;BME280;70514;52.478;6.102;2023-06-14T07:39:19;101932.53;;;26.53;27.47
81033;BME280;70514;52.478;6.102;2023-06-14T07:41:44;101917.47;;;26.55;27.16
81033;BME280;70514;52.478;6.102;2023-06-14T07:44:10;101914.78;;;26.57;27.31
81033;BME280;70514;52.478;6.102;2023-06-14T07:46:35;101926.75;;;26.65;27.10
81033;BME280;70514;52.478;6.102;2023-06-14T07:49:01;101919.19;;;26.78;26.77
81033;BME280;70514;52.478;6.102;2023-06-14T07:51:26;101909.09;;;26.88;26.62
81033;BME280;70514;52.478;6.102;2023-06-14T07:53:51;101890.59;;;26.88;26.53
81033;BME280;70514;52.478;6.102;2023-06-14T07:56:17;101884.06;;;26.96;26.61
81033;BME280;70514;52.478;6.102;2023-06-14T07:58:42;101920.84;;;27.21;26.55
81033;BME280;70514;52.478;6.102;2023-06-14T08:01:08;101920.66;;;27.26;26.27
81033;BME280;70514;52.478;6.102;2023-06-14T08:03:34;101923.94;;;27.31;26.15
81033;BME280;70514;52.478;6.102;2023-06-14T08:05:59;101901.16;;;27.28;26.18
81033;BME280;70514;52.478;6.102;2023-06-14T08:08:26;101922.16;;;27.52;25.98
81033;BME280;70514;52.478;6.102;2023-06-14T08:10:51;101891.72;;;27.41;25.93
81033;BME280;70514;52.478;6.102;2023-06-14T08:13:16;101894.72;;;27.54;25.90
81033;BME280;70514;52.478;6.102;2023-06-14T08:15:42;101927.56;;;27.69;25.80
81033;BME280;70514;52.478;6.102;2023-06-14T08:18:07;101917.63;;;27.74;25.80
81033;BME280;70514;52.478;6.102;2023-06-14T08:20:32;101911.25;;;27.78;25.73
81033;BME280;70514;52.478;6.102;2023-06-14T08:23:00;101876.19;;;27.73;25.70
81033;BME280;70514;52.478;6.102;2023-06-14T08:25:25;101923.22;;;28.05;25.37
81033;BME280;70514;52.478;6.102;2023-06-14T08:27:51;101924.41;;;28.18;25.05
81033;BME280;70514;52.478;6.102;2023-06-14T08:30:16;101881.44;;;28.12;25.11
81033;BME280;70514;52.478;6.102;2023-06-14T08:32:43;101891.59;;;28.21;25.10
81033;BME280;70514;52.478;6.102;2023-06-14T08:35:08;101909.88;;;28.44;24.58
81033;BME280;70514;52.478;6.102;2023-06-14T08:37:38;101918.53;;;28.48;24.47
81033;BME280;70514;52.478;6.102;2023-06-14T08:40:04;101905.22;;;28.49;24.48
81033;BME280;70514;52.478;6.102;2023-06-14T08:42:32;101901.31;;;28.56;24.38
81033;BME280;70514;52.478;6.102;2023-06-14T08:44:57;101914.25;;;28.62;24.11
81033;BME280;70514;52.478;6.102;2023-06-14T08:47:23;101868.13;;;28.49;24.36
81033;BME280;70514;52.478;6.102;2023-06-14T08:49:50;101875.38;;;28.63;24.36
81033;BME280;70514;52.478;6.102;2023-06-14T08:52:19;101907.75;;;28.87;23.81
81033;BME280;70514;52.478;6.102;2023-06-14T08:54:46;101906.28;;;28.98;24.24
81033;BME280;70514;52.478;6.102;2023-06-14T08:57:14;101902.19;;;29.08;24.07
81033;BME280;70514;52.478;6.102;2023-06-14T08:59:45;101874.19;;;29.03;23.51
81033;BME280;70514;52.478;6.102;2023-06-14T09:02:12;101906.72;;;29.24;23.31
81033;BME280;70514;52.478;6.102;2023-06-14T09:04:38;101909.53;;;29.21;23.81
81033;BME280;70514;52.478;6.102;2023-06-14T09:07:05;101874.91;;;29.06;23.18
81033;BME280;70514;52.478;6.102;2023-06-14T09:09:32;101909.75;;;29.33;23.63
81033;BME280;70514;52.478;6.102;2023-06-14T09:11:57;101917.69;;;29.50;22.83
81033;BME280;70514;52.478;6.102;2023-06-14T09:14:24;101904.78;;;29.60;22.68
81033;BME280;70514;52.478;6.102;2023-06-14T09:16:53;101907.03;;;29.68;22.74
81033;BME280;70514;52.478;6.102;2023-06-14T09:19:25;101918.16;;;29.74;23.06
81033;BME280;70514;52.478;6.102;2023-06-14T09:21:52;101913.91;;;29.87;22.56
81033;BME280;70514;52.478;6.102;2023-06-14T09:24:18;101927.22;;;30.03;22.20
81033;BME280;70514;52.478;6.102;2023-06-14T09:26:47;101901.06;;;30.11;22.29
81033;BME280;70514;52.478;6.102;2023-06-14T09:29:12;101909.22;;;30.24;22.47
81033;BME280;70514;52.478;6.102;2023-06-14T09:31:37;101901.66;;;30.32;22.40
81033;BME280;70514;52.478;6.102;2023-06-14T09:34:03;101913.84;;;30.36;22.19
81033;BME280;70514;52.478;6.102;2023-06-14T09:36:31;101890.00;;;30.34;22.36
81033;BME280;70514;52.478;6.102;2023-06-14T09:38:59;101894.97;;;30.40;22.10
81033;BME280;70514;52.478;6.102;2023-06-14T09:41:39;101898.25;;;30.30;21.71
81033;BME280;70514;52.478;6.102;2023-06-14T09:44:06;101909.63;;;30.48;22.03
81033;BME280;70514;52.478;6.102;2023-06-14T09:46:33;101910.47;;;30.48;21.72
81033;BME280;70514;52.478;6.102;2023-06-14T09:48:58;101919.16;;;30.52;21.77
81033;BME280;70514;52.478;6.102;2023-06-14T09:51:25;101909.28;;;30.54;21.18
81033;BME280;70514;52.478;6.102;2023-06-14T09:53:52;101913.84;;;30.52;21.80
81033;BME280;70514;52.478;6.102;2023-06-14T09:56:26;101908.53;;;30.52;21.37
81033;BME280;70514;52.478;6.102;2023-06-14T09:58:55;101905.00;;;30.51;21.52
81033;BME280;70514;52.478;6.102;2023-06-14T10:01:20;101921.16;;;30.62;21.41
81033;BME280;70514;52.478;6.102;2023-06-14T10:03:50;101909.25;;;30.69;21.45
81033;BME280;70514;52.478;6.102;2023-06-14T10:06:20;101905.94;;;30.80;20.99
81033;BME280;70514;52.478;6.102;2023-06-14T10:08:50;101902.34;;;30.81;20.86
81033;BME280;70514;52.478;6.102;2023-06-14T10:11:17;101877.41;;;30.68;21.12
81033;BME280;70514;52.478;6.102;2023-06-14T10:13:42;101905.66;;;30.85;20.84
81033;BME280;70514;52.478;6.102;2023-06-14T10:16:32;101905.00;;;30.81;21.21
81033;BME280;70514;52.478;6.102;2023-06-14T10:21:43;101912.16;;;30.95;20.69
81033;BME280;70514;52.478;6.102;2023-06-14T10:24:13;101899.53;;;30.98;20.77
81033;BME280;70514;52.478;6.102;2023-06-14T10:26:56;101901.16;;;31.01;20.50
81033;BME280;70514;52.478;6.102;2023-06-14T10:29:22;101916.50;;;31.11;20.97
81033;BME280;70514;52.478;6.102;2023-06-14T10:31:49;101909.66;;;31.07;20.79
81033;BME280;70514;52.478;6.102;2023-06-14T10:34:28;101902.19;;;30.98;20.38
81033;BME280;70514;52.478;6.102;2023-06-14T10:37:13;101898.75;;;30.96;20.47
81033;BME280;70514;52.478;6.102;2023-06-14T10:39:41;101892.50;;;30.97;20.79
81033;BME280;70514;52.478;6.102;2023-06-14T10:42:07;101901.16;;;31.01;21.02
81033;BME280;70514;52.478;6.102;2023-06-14T10:44:39;101905.53;;;31.02;20.40
81033;BME280;70514;52.478;6.102;2023-06-14T10:47:10;101897.53;;;31.02;20.66
81033;BME280;70514;52.478;6.102;2023-06-14T10:49:40;101891.38;;;31.01;20.42
81033;BME280;70514;52.478;6.102;2023-06-14T10:52:14;101900.22;;;31.02;20.34
81033;BME280;70514;52.478;6.102;2023-06-14T10:57:52;101897.28;;;31.06;20.37
81033;BME280;70514;52.478;6.102;2023-06-14T11:00:28;101901.84;;;31.04;20.53
81033;BME280;70514;52.478;6.102;2023-06-14T11:06:16;101887.25;;;30.96;20.70
81033;BME280;70514;52.478;6.102;2023-06-14T11:11:48;101900.06;;;30.89;20.47
81033;BME280;70514;52.478;6.102;2023-06-14T11:14:16;101876.25;;;30.88;20.13
81033;BME280;70514;52.478;6.102;2023-06-14T11:16:47;101879.09;;;30.99;19.99
81033;BME280;70514;52.478;6.102;2023-06-14T11:19:13;101897.09;;;31.09;20.23
81033;BME280;70514;52.478;6.102;2023-06-14T11:21:40;101891.69;;;31.11;19.69
81033;BME280;70514;52.478;6.102;2023-06-14T11:24:09;101880.31;;;31.09;20.28
81033;BME280;70514;52.478;6.102;2023-06-14T11:26:37;101889.81;;;31.27;20.01
81033;BME280;70514;52.478;6.102;2023-06-14T11:29:03;101897.78;;;31.41;19.56
81033;BME280;70514;52.478;6.102;2023-06-14T11:31:29;101875.19;;;31.34;19.52
81033;BME280;70514;52.478;6.102;2023-06-14T11:33:59;101884.09;;;31.47;19.43
81033;BME280;70514;52.478;6.102;2023-06-14T11:36:29;101878.56;;;31.50;19.39
81033;BME280;70514;52.478;6.102;2023-06-14T11:39:02;101859.56;;;31.42;19.25
81033;BME280;70514;52.478;6.102;2023-06-14T11:41:36;101884.09;;;31.61;18.85
81033;BME280;70514;52.478;6.102;2023-06-14T11:44:02;101876.13;;;31.61;18.83
81033;BME280;70514;52.478;6.102;2023-06-14T11:46:28;101892.09;;;31.61;18.85
81033;BME280;70514;52.478;6.102;2023-06-14T11:48:53;101883.72;;;31.53;19.22
81033;BME280;70514;52.478;6.102;2023-06-14T11:51:19;101879.63;;;31.62;18.92
81033;BME280;70514;52.478;6.102;2023-06-14T11:53:45;101851.94;;;31.50;18.98
81033;BME280;70514;52.478;6.102;2023-06-14T11:56:11;101883.81;;;31.80;18.89
81033;BME280;70514;52.478;6.102;2023-06-14T11:58:36;101880.25;;;31.94;19.04
81033;BME280;70514;52.478;6.102;2023-06-14T12:01:05;101880.63;;;32.02;18.89
81033;BME280;70514;52.478;6.102;2023-06-14T12:03:30;101889.25;;;32.05;18.75
81033;BME280;70514;52.478;6.102;2023-06-14T12:06:06;101892.03;;;32.04;18.82
81033;BME280;70514;52.478;6.102;2023-06-14T12:08:38;101857.03;;;31.96;18.51
81033;BME280;70514;52.478;6.102;2023-06-14T12:11:13;101887.66;;;32.17;18.48
81033;BME280;70514;52.478;6.102;2023-06-14T12:13:41;101882.59;;;32.13;18.63
81033;BME280;70514;52.478;6.102;2023-06-14T12:16:11;101863.66;;;32.03;18.68
81033;BME280;70514;52.478;6.102;2023-06-14T12:18:38;101886.03;;;32.15;18.47
81033;BME280;70514;52.478;6.102;2023-06-14T12:21:08;101848.66;;;32.02;18.55
81033;BME280;70514;52.478;6.102;2023-06-14T12:26:08;101880.00;;;32.25;18.48
81033;BME280;70514;52.478;6.102;2023-06-14T12:28:33;101887.34;;;32.22;18.54
81033;BME280;70514;52.478;6.102;2023-06-14T12:30:59;101876.78;;;32.20;18.48
81033;BME280;70514;52.478;6.102;2023-06-14T12:33:24;101878.28;;;32.24;18.54
81033;BME280;70514;52.478;6.102;2023-06-14T12:35:50;101886.19;;;32.26;18.59
81033;BME280;70514;52.478;6.102;2023-06-14T12:38:16;101850.59;;;32.13;18.47
81033;BME280;70514;52.478;6.102;2023-06-14T12:40:41;101872.31;;;32.33;18.19
81033;BME280;70514;52.478;6.102;2023-06-14T12:43:07;101875.13;;;32.44;18.47
81033;BME280;70514;52.478;6.102;2023-06-14T12:45:33;101885.41;;;32.51;18.82
81033;BME280;70514;52.478;6.102;2023-06-14T12:47:58;101849.84;;;32.37;18.55
81033;BME280;70514;52.478;6.102;2023-06-14T12:50:23;101880.59;;;32.56;18.19
81033;BME280;70514;52.478;6.102;2023-06-14T12:52:49;101849.84;;;32.37;18.38
81033;BME280;70514;52.478;6.102;2023-06-14T12:55:14;101882.09;;;32.60;18.24
81033;BME280;70514;52.478;6.102;2023-06-14T12:57:40;101885.16;;;32.68;18.26
81033;BME280;70514;52.478;6.102;2023-06-14T13:00:05;101877.59;;;32.74;17.98
81033;BME280;70514;52.478;6.102;2023-06-14T13:02:32;101867.56;;;32.78;18.08
81033;BME280;70514;52.478;6.102;2023-06-14T13:04:59;101867.66;;;32.76;18.20